Time;durP1;ratioP1;P1;durP2;ratioP2;P2;SDS_P1;SDS_P2;PMS_P1;PMS_P2;Temp;Humidity;BMP_temperature;BMP_pressure;BME280_temperature;BME280_humidity;BME280_pressure;Samples;Min_cycle;Max_cycle;Signal;HPM_P1;HPM_P2
2023/05/06 08:09:14;;;;;;;;;14.00;10.67;;;;;;;;6373201;31;6965412;-62
2023/05/06 08:15:31;;;;;;;;;15.67;14.00;;;;;;;;6500697;38;8981;-62
2023/05/06 08:21:40;;;;;;;;;14.00;11.33;;;;;;;;6501650;31;8864;-61
2023/05/06 08:27:44;;;;;;;;;16.33;13.67;;;;;;;;6501122;31;8955;-62
2023/05/06 08:34:04;;;;;;;;;14.33;11.67;;;;;;;;6502177;38;8845;-63
2023/05/06 08:40:21;;;;;;;;;11.67;9.67;;;;;;;;6500790;38;9625;-62
2023/05/06 08:46:41;;;;;;;;;14.00;12.00;;;;;;;;6501644;38;8856;-61
2023/05/06 08:52:49;;;;;;;;;8.00;8.00;;;;;;;;6501065;46;9027;-61
2023/05/06 08:59:12;;;;;;;;;13.00;11.00;;;;;;;;6501612;38;8856;-61
2023/05/06 09:05:16;;;;;;;;;9.50;8.75;;;;;;;;6501894;31;9067;-62
2023/05/06 09:11:30;;;;;;;;;13.00;12.00;;;;;;;;6500259;46;8889;-63
2023/05/06 09:17:39;;;;;;;;;10.33;9.67;;;;;;;;6496190;39;8889;-61
2023/05/06 09:23:46;;;;;;;;;15.67;14.00;;;;;;;;6492465;31;9060;-60
2023/05/06 09:30:00;;;;;;;;;12.25;12.25;;;;;;;;6491728;31;9003;-61
2023/05/06 09:36:26;;;;;;;;;12.50;12.50;;;;;;;;6492225;46;8890;-61
2023/05/06 09:42:32;;;;;;;;;10.00;9.50;;;;;;;;6491451;39;8882;-61
2023/05/06 09:48:38;;;;;;;;;14.00;14.00;;;;;;;;6491849;39;8910;-62
2023/05/06 09:54:43;;;;;;;;;12.50;12.50;;;;;;;;6491184;39;9017;-63
2023/05/06 10:00:54;;;;;;;;;11.25;10.75;;;;;;;;6491632;46;8893;-63
2023/05/06 10:07:03;;;;;;;;;10.00;9.75;;;;;;;;6491060;46;8931;-61
2023/05/06 10:13:15;;;;;;;;;9.75;7.50;;;;;;;;6491899;31;9531;-63
2023/05/06 10:19:24;;;;;;;;;12.50;9.25;;;;;;;;6491302;39;8990;-62
2023/05/06 10:25:39;;;;;;;;;10.00;10.00;;;;;;;;6491017;31;9056;-62
2023/05/06 10:31:53;;;;;;;;;12.00;10.75;;;;;;;;6491394;39;8832;-63
2023/05/06 10:38:02;;;;;;;;;11.75;10.00;;;;;;;;6491085;46;8944;-61
2023/05/06 10:44:06;;;;;;;;;9.67;9.67;;;;;;;;6491911;39;8860;-62
2023/05/06 10:50:38;;;;;;;;;9.00;9.00;;;;;;;;6491776;39;9019;-62
2023/05/06 10:56:56;;;;;;;;;9.50;9.50;;;;;;;;6490942;39;8944;-62
2023/05/06 11:03:08;;;;;;;;;8.25;7.00;;;;;;;;6490915;46;8884;-62
2023/05/06 11:09:29;;;;;;;;;8.33;8.33;;;;;;;;6490341;46;8895;-62
2023/05/06 11:15:50;;;;;;;;;10.00;9.00;;;;;;;;6491605;39;9541;-62
2023/05/06 11:22:04;;;;;;;;;9.00;9.00;;;;;;;;6491751;39;8998;-62
2023/05/06 11:28:10;;;;;;;;;10.50;10.50;;;;;;;;6490656;31;8885;-63
2023/05/06 11:34:32;;;;;;;;;14.00;11.00;;;;;;;;6491769;39;8902;-62
2023/05/06 11:40:41;;;;;;;;;8.50;8.00;;;;;;;;6490864;39;8948;-62
2023/05/06 11:47:14;;;;;;;;;11.25;10.50;;;;;;;;6492222;39;9002;-61
2023/05/06 11:53:36;;;;;;;;;8.00;7.50;;;;;;;;6491348;31;8924;-61
2023/05/06 11:59:54;;;;;;;;;7.25;7.25;;;;;;;;6491228;39;8903;-62
2023/05/06 12:06:06;;;;;;;;;8.00;5.75;;;;;;;;6608489;36;10000514;-62
2023/05/06 12:12:17;;;;;;;;;6.25;6.00;;;;;;;;6488023;47;8842;-60
2023/05/06 12:18:23;;;;;;;;;5.50;5.50;;;;;;;;6488484;31;8877;-61
2023/05/06 12:24:47;;;;;;;;;6.00;6.00;;;;;;;;6487578;47;8949;-65
2023/05/06 12:31:25;;;;;;;;;6.25;5.50;;;;;;;;6487770;39;9597;-62
2023/05/06 12:37:29;;;;;;;;;8.75;7.25;;;;;;;;6487695;39;8872;-62
2023/05/06 12:43:37;;;;;;;;;5.25;5.00;;;;;;;;6489222;39;8890;-63
2023/05/06 12:49:59;;;;;;;;;6.00;6.00;;;;;;;;6490724;47;8943;-61
2023/05/06 12:56:08;;;;;;;;;6.50;6.50;;;;;;;;6492427;39;8906;-62
2023/05/06 13:02:15;;;;;;;;;6.00;6.00;;;;;;;;6493894;31;9090;-62
2023/05/06 13:08:19;;;;;;;;;10.25;8.75;;;;;;;;6493134;39;8917;-62
2023/05/06 13:14:36;;;;;;;;;7.75;6.25;;;;;;;;6491653;39;8935;-62
2023/05/06 13:20:45;;;;;;;;;2.00;1.50;;;;;;;;6492579;46;8850;-61
2023/05/06 13:26:59;;;;;;;;;6.00;5.00;;;;;;;;6492596;31;9336;-60
2023/05/06 13:33:11;;;;;;;;;8.50;7.50;;;;;;;;6492642;39;8886;-62
2023/05/06 13:39:16;;;;;;;;;5.25;4.25;;;;;;;;6492180;46;8930;-63
2023/05/06 13:45:25;;;;;;;;;5.50;5.50;;;;;;;;6491174;46;8955;-61
2023/05/06 13:51:32;;;;;;;;;5.50;5.50;;;;;;;;6491079;31;8916;-62
2023/05/06 13:57:41;;;;;;;;;5.00;5.00;;;;;;;;6489075;46;8880;-61
2023/05/06 14:03:58;;;;;;;;;4.25;4.25;;;;;;;;6489543;39;8941;-63
2023/05/06 14:10:37;;;;;;;;;5.50;5.50;;;;;;;;6490198;31;8872;-63
2023/05/06 14:16:54;;;;;;;;;9.00;6.00;;;;;;;;6488831;46;8885;-60
2023/05/06 14:23:06;;;;;;;;;6.00;5.00;;;;;;;;6489659;31;8908;-63
2023/05/06 14:29:21;;;;;;;;;5.25;5.00;;;;;;;;6488144;31;9060;-62
2023/05/06 14:35:29;;;;;;;;;3.50;3.50;;;;;;;;6488640;31;8990;-62
2023/05/06 14:41:34;;;;;;;;;4.25;4.25;;;;;;;;6489237;31;8885;-61
2023/05/06 14:47:45;;;;;;;;;3.00;3.00;;;;;;;;6487773;39;8923;-62
2023/05/06 14:53:50;;;;;;;;;4.00;4.00;;;;;;;;6487865;39;8939;-62
2023/05/06 14:59:57;;;;;;;;;2.50;2.50;;;;;;;;6489127;39;9547;-61
2023/05/06 15:06:06;;;;;;;;;4.00;4.00;;;;;;;;6487827;39;9039;-62
2023/05/06 15:12:26;;;;;;;;;4.25;4.25;;;;;;;;6488286;39;8864;-61
2023/05/06 15:18:31;;;;;;;;;3.00;3.00;;;;;;;;6488081;39;9072;-62
2023/05/06 15:24:39;;;;;;;;;3.25;3.00;;;;;;;;6489889;31;8935;-62
2023/05/06 15:30:42;;;;;;;;;4.25;4.00;;;;;;;;6488342;39;9594;-62
2023/05/06 15:37:02;;;;;;;;;3.75;3.75;;;;;;;;7555283;36;9052;-61
2023/05/06 15:43:08;;;;;;;;;5.00;5.00;;;;;;;;6487757;46;8872;-61
2023/05/06 15:49:18;;;;;;;;;4.00;4.00;;;;;;;;6488799;39;8991;-61
2023/05/06 15:55:28;;;;;;;;;3.75;3.75;;;;;;;;6487541;39;8928;-61
2023/05/06 16:01:45;;;;;;;;;6.50;6.25;;;;;;;;6488332;39;8880;-62
2023/05/06 16:08:13;;;;;;;;;5.75;3.75;;;;;;;;6487342;47;8897;-61
2023/05/06 16:14:20;;;;;;;;;5.50;5.50;;;;;;;;6488065;31;8884;-62
2023/05/06 16:20:26;;;;;;;;;2.75;2.75;;;;;;;;6487770;47;8868;-62
2023/05/06 16:26:47;;;;;;;;;4.75;4.75;;;;;;;;6487687;39;9472;-61
2023/05/06 16:32:56;;;;;;;;;4.75;4.75;;;;;;;;6489729;39;8900;-61
2023/05/06 16:38:59;;;;;;;;;3.75;3.75;;;;;;;;6490521;39;9508;-62
2023/05/06 16:45:06;;;;;;;;;5.00;5.00;;;;;;;;6488839;46;8967;-62
2023/05/06 16:51:20;;;;;;;;;7.33;6.00;;;;;;;;6490207;39;9680;-61
2023/05/06 16:57:27;;;;;;;;;5.33;5.33;;;;;;;;6489655;39;8900;-62
2023/05/06 17:03:40;;;;;;;;;8.33;6.67;;;;;;;;6487979;46;8902;-62
2023/05/06 17:09:45;;;;;;;;;7.67;5.67;;;;;;;;6489266;31;8897;-61
2023/05/06 17:16:06;;;;;;;;;7.00;7.00;;;;;;;;6489142;39;8863;-62
2023/05/06 17:22:10;;;;;;;;;7.33;7.33;;;;;;;;6488964;39;8916;-63
2023/05/06 17:28:17;;;;;;;;;9.00;8.33;;;;;;;;6488547;46;8958;-61
2023/05/06 17:34:31;;;;;;;;;8.33;8.00;;;;;;;;6489959;31;9499;-63
2023/05/06 17:40:42;;;;;;;;;8.33;7.67;;;;;;;;6488829;39;8888;-61
2023/05/06 17:46:47;;;;;;;;;7.33;5.00;;;;;;;;6489137;31;8968;-61
2023/05/06 17:52:53;;;;;;;;;7.00;7.00;;;;;;;;6489785;39;8879;-62
2023/05/06 17:59:01;;;;;;;;;8.67;6.67;;;;;;;;6489386;46;8920;-61
2023/05/06 18:05:07;;;;;;;;;10.00;8.00;;;;;;;;6489411;39;8923;-62
2023/05/06 18:11:14;;;;;;;;;10.33;9.33;;;;;;;;6488379;39;8969;-63
2023/05/06 18:17:26;;;;;;;;;10.33;10.33;;;;;;;;6488972;31;8957;-63
2023/05/06 18:23:42;;;;;;;;;10.00;9.00;;;;;;;;6487989;46;8841;-62
2023/05/06 18:29:44;;;;;;;;;12.67;12.67;;;;;;;;6487686;46;8974;-61
2023/05/06 18:35:47;;;;;;;;;13.33;11.67;;;;;;;;6489155;39;8885;-62
2023/05/06 18:41:50;;;;;;;;;11.33;11.33;;;;;;;;6489208;39;8887;-61
2023/05/06 18:47:53;;;;;;;;;12.00;9.33;;;;;;;;6488512;31;8908;-60
2023/05/06 18:54:01;;;;;;;;;8.33;8.33;;;;;;;;6487829;31;8891;-61
2023/05/06 19:00:07;;;;;;;;;11.00;10.00;;;;;;;;6488755;39;9497;-61
2023/05/06 19:06:18;;;;;;;;;6.67;5.00;;;;;;;;6488566;39;8952;-61
2023/05/06 19:12:29;;;;;;;;;11.33;9.67;;;;;;;;6489009;39;8889;-64
2023/05/06 19:18:33;;;;;;;;;10.33;9.33;;;;;;;;6487940;46;8863;-63
2023/05/06 19:24:36;;;;;;;;;8.67;8.67;;;;;;;;6488262;31;8853;-61
2023/05/06 19:30:44;;;;;;;;;9.33;9.00;;;;;;;;6487543;31;8915;-60
2023/05/06 19:36:58;;;;;;;;;8.33;7.00;;;;;;;;6488618;39;9480;-63
2023/05/06 19:43:21;;;;;;;;;13.00;10.00;;;;;;;;6488296;31;8935;-60
2023/05/06 19:49:29;;;;;;;;;9.00;9.00;;;;;;;;6486114;46;8944;-61
2023/05/06 19:55:44;;;;;;;;;9.00;9.00;;;;;;;;6487803;39;8892;-60
2023/05/06 20:01:52;;;;;;;;;8.67;8.67;;;;;;;;6487026;39;9596;-60
2023/05/06 20:07:59;;;;;;;;;10.00;10.00;;;;;;;;6485987;47;8919;-61
2023/05/06 20:14:08;;;;;;;;;12.67;12.00;;;;;;;;6486140;39;8873;-62
2023/05/06 20:20:14;;;;;;;;;12.00;11.67;;;;;;;;6485921;31;8872;-61
2023/05/06 20:26:21;;;;;;;;;12.00;11.67;;;;;;;;6486043;47;8964;-64
2023/05/06 20:32:46;;;;;;;;;12.00;12.00;;;;;;;;6487398;39;9511;-60
2023/05/06 20:39:04;;;;;;;;;13.33;10.00;;;;;;;;6486529;39;8920;-62
2023/05/06 20:45:09;;;;;;;;;14.33;14.00;;;;;;;;6486993;39;8954;-61
2023/05/06 20:51:20;;;;;;;;;13.67;10.67;;;;;;;;6486946;39;8913;-63
2023/05/06 20:57:27;;;;;;;;;15.67;15.00;;;;;;;;6485858;47;8946;-61
2023/05/06 21:03:40;;;;;;;;;13.67;13.00;;;;;;;;6486599;39;8897;-61
2023/05/06 21:09:46;;;;;;;;;13.67;13.00;;;;;;;;6486588;39;8896;-61
2023/05/06 21:15:52;;;;;;;;;18.33;15.00;;;;;;;;6487599;39;8909;-61
2023/05/06 21:22:08;;;;;;;;;16.33;14.33;;;;;;;;6487892;39;8891;-61
2023/05/06 21:28:25;;;;;;;;;13.00;13.00;;;;;;;;6488127;39;8978;-61
2023/05/06 21:34:35;;;;;;;;;18.33;14.00;;;;;;;;6487647;39;8875;-61
2023/05/06 21:40:40;;;;;;;;;13.00;13.00;;;;;;;;6487278;39;8905;-61
2023/05/06 21:46:46;;;;;;;;;15.33;15.33;;;;;;;;6487132;46;8944;-61
2023/05/06 21:52:53;;;;;;;;;15.00;12.67;;;;;;;;6488368;39;8884;-61
2023/05/06 21:58:58;;;;;;;;;12.00;10.67;;;;;;;;6487516;39;8879;-61
2023/05/06 22:05:08;;;;;;;;;17.00;13.00;;;;;;;;6486750;31;8957;-61
2023/05/06 22:11:12;;;;;;;;;13.33;11.00;;;;;;;;6487914;39;8947;-62
2023/05/06 22:17:18;;;;;;;;;13.67;13.00;;;;;;;;6487872;39;9050;-63
2023/05/06 22:23:23;;;;;;;;;12.33;11.33;;;;;;;;6487416;31;8927;-61
2023/05/06 22:29:27;;;;;;;;;16.00;16.00;;;;;;;;6488553;39;8999;-61
2023/05/06 22:35:29;;;;;;;;;15.33;15.00;;;;;;;;6486834;46;8923;-60
2023/05/06 22:41:32;;;;;;;;;14.00;14.00;;;;;;;;6487773;46;8947;-61
2023/05/06 22:47:34;;;;;;;;;19.33;15.00;;;;;;;;6487619;39;9658;-60
2023/05/06 22:53:38;;;;;;;;;13.67;13.67;;;;;;;;6487743;39;8931;-61
2023/05/06 22:59:42;;;;;;;;;13.33;13.00;;;;;;;;6486842;46;8908;-59
2023/05/06 23:05:46;;;;;;;;;11.33;10.33;;;;;;;;6487476;46;8904;-61
2023/05/06 23:11:48;;;;;;;;;13.00;13.00;;;;;;;;6487699;46;8869;-59
2023/05/06 23:18:01;;;;;;;;;13.67;13.00;;;;;;;;6487699;39;8854;-59
2023/05/06 23:24:07;;;;;;;;;13.00;13.00;;;;;;;;6486729;46;8906;-60
2023/05/06 23:30:11;;;;;;;;;12.00;11.33;;;;;;;;6486896;39;8924;-61
2023/05/06 23:36:15;;;;;;;;;16.33;15.67;;;;;;;;6486318;46;8914;-61
2023/05/06 23:42:27;;;;;;;;;20.33;17.67;;;;;;;;6487717;39;8925;-60
2023/05/06 23:48:33;;;;;;;;;21.67;19.33;;;;;;;;6487953;39;8986;-61
2023/05/06 23:54:52;;;;;;;;;16.67;16.67;;;;;;;;6487197;39;8881;-60
